x

Portland 12 Nm Southeast Of Portland,me (44007) Wave Buoy

9:50am - Tue 28th Feb 2017 All times are EST. -5 hours from GMT.

  • Sig Wave height 2.6ft
  • Swell Direction
  • Peak Period 6s
  • Average Period 5s
  • Wind
    4mph, 7mph gusts
  • Sea Temp 39°f
  • Air Temp 39°f
  • Sea Pressure 1029.4mb
  • Portland 12 Nm Southeast Of Portland,me
  • Portland 12 Nm Southeast Of Portland,me

More Historic Weather Station data

Upgrade to MSW Pro to gain access to the past 30 days of data for over 8000 Wavebouys and Weather Stations around the globe.

Join Pro

Comparision Forecast

View Surf forecast
   
Tue 02/28 9:50am 2.5ft 6s 5s 4 7 mph 1029.4mb 39f 39f
8:50am 3.5ft 6s 5s 2 4 mph 1030mb 39f 39f
7:50am 3ft 6s 5s  -  2 mph 1029.6mb 39f 39f
6:50am 3.5ft 6s 5s 7 9 mph 1029.2mb 39f 39f
5:50am 3.5ft 7s 5s 4 7 mph 1028.3mb 39f 40f
4:50am 3.5ft 6s 5s 7 9 mph 1028.4mb 39f 40f
3:50am 3.5ft 6s 5s 9 11 mph 1027.9mb 39f 40f
2:50am 4ft 7s 5s 9
mph
1027.5mb 39f 40f
1:50am 4.5ft 6s 5s 11
mph
1027.2mb 39f 41f
12:50am 5ft 7s 5s 11 13 mph 1026.7mb 39f 41f
Mon 02/27 11:50pm 4.5ft 7s 5s 16 18 mph 1026.1mb 39f 41f
10:50pm 4.5ft 7s 5s 16 18 mph 1025.8mb 39f 42f
9:50pm 3.5ft 5s 5s 13 16 mph 1025.9mb 39f 42f
8:50pm 3.5ft 6s 5s 11 13 mph 1025.9mb 39f 43f
7:50pm 3.5ft 5s 5s 11 13 mph 1025.3mb 39f 44f
6:50pm 3.5ft 6s 5s 9 11 mph 1024.8mb 39f 45f
5:50pm 4ft 6s 5s 9 11 mph 1023.9mb 39f 46f
4:50pm 4.5ft 6s 5s 13 16 mph 1022.4mb 39f 46f
3:50pm 3.5ft 6s 5s 13 18 mph 1022mb 39f 46f
2:50pm 4ft 6s 5s 11 13 mph 1022.1mb 39f 45f
1:50pm 3.5ft 6s 5s 13 18 mph 1022.2mb 39f 42f
12:50pm 4ft 5s 5s 18 25 mph 1022.5mb 39f 42f
11:50am 4.5ft 6s 5s 22 27 mph 1022.9mb 39f 40f
10:50am 4.5ft 5s 4s 20 25 mph 1023.6mb 39f 39f
9:50am 4ft 5s 4s 22 27 mph 1024mb 39f 37f
8:50am 4.5ft 5s 5s 25 27 mph 1023.6mb 39f 35f
7:50am 4.5ft 5s 5s 22 27 mph 1023.4mb 39f 34f
6:50am 4.5ft 5s 5s 25 29 mph 1023.1mb 39f 34f
5:50am 4ft 5s 4s 27 29 mph 1022.7mb 39f 34f
4:50am 3.5ft 10s 5s 22 27 mph 1022.5mb 39f 34f
3:50am 3.5ft 9s 4s 20 25 mph 1022.2mb 39f 34f
2:50am 2.5ft 10s 4s 22 27 mph 1021.9mb 38f 34f
1:50am 2.5ft 10s 5s 18 22 mph 1021.5mb 39f 33f
12:50am 2ft 10s 5s 13 16 mph 1020.7mb 39f 33f
Sun 02/26 11:50pm 2ft 11s 5s 7 9 mph 1020.3mb 39f 33f
10:50pm 2.5ft 11s 5s 11 13 mph 1019.7mb 39f 32f
9:50pm 2.5ft 11s 5s 11 13 mph 1018.9mb 39f 33f
8:50pm 3ft 11s 5s 20 22 mph 1017.6mb 39f 34f
7:50pm 3ft 11s 5s 18 22 mph 1016.1mb 39f 35f
6:50pm 3.5ft 11s 6s 18 20 mph 1014.8mb 39f 37f
5:50pm 4ft 11s 5s 16 20 mph 1013.2mb 39f 38f
4:50pm 3.5ft 10s 5s 20 25 mph 1011.4mb 39f 38f
3:50pm 3.5ft 10s 5s 25 31 mph 1009.6mb 39f 39f
2:50pm 3ft 10s 4s 22 27 mph 1008.3mb 39f 40f
1:50pm 3ft 11s 4s 25 29 mph 1007.1mb 39f 40f
12:50pm 3.5ft 11s 4s 25 31 mph 1006.3mb 39f 39f
11:50am 3.5ft 11s 4s 20 25 mph 1006.2mb 39f 38f
10:50am 3ft 11s 4s 25 29 mph 1005.5mb 39f 38f
9:50am 3ft 11s 4s 25 29 mph 1004.9mb 39f 38f
8:50am 2.5ft 11s 4s 22 27 mph 1003.9mb 39f 38f
7:50am 3.5ft 11s 4s 18 20 mph 1003mb 39f 39f
6:50am 3ft 11s 4s 20 25 mph 1001.6mb 39f 39f
5:50am 3ft 11s 4s 22 27 mph 1000.4mb 39f 39f
4:50am 2.5ft 11s 5s 18 22 mph 999.1mb 39f 40f
3:50am 2.5ft 11s 5s 11 13 mph 997.7mb 39f 41f
2:50am 2.5ft 5s 4s 9 11 mph 996.4mb 39f 42f
1:50am 3ft 5s 5s 16 18 mph 995.5mb 39f 43f
12:50am 3ft 5s 4s 9 11 mph 994.9mb 39f 44f
Sat 02/25 11:50pm 3ft 4s 4s 11 13 mph 995.3mb 39f 43f
10:50pm 3ft 11s 4s 18 20 mph 994.8mb 40f 44f
9:50pm 2.5ft 11s 4s 11 13 mph 996.4mb 40f 43f
8:50pm 3ft 4s 4s 11 13 mph 997.6mb 39f 43f
7:50pm 3ft 5s 4s 11
mph
999.4mb 40f 43f
6:50pm 3.5ft 5s 4s 16 20 mph 999.8mb 40f 44f
5:50pm 3.5ft 11s 4s 18 20 mph 1000.8mb 40f 45f
4:50pm 3ft 11s 5s 16
mph
1002.5mb 40f 44f
3:50pm 3ft 11s 5s 9 13 mph 1004.5mb 41f 44f
2:50pm 2.5ft 11s 5s 7
mph
1005.6mb 41f 47f
1:50pm 3ft 11s 5s 2 4 mph 1006.3mb 41f 46f
12:50pm 3ft 11s 5s  -  2 mph 1007.1mb 41f 44f
11:50am 2.5ft 12s 5s 2
mph
1008.2mb 40f 44f
10:50am 3ft 12s 5s 4
mph
1009.3mb 39f 43f
9:50am 3ft 5s 5s 9
mph
1009.8mb 39f 43f
8:50am 3ft 5s 5s 7 9 mph 1010.4mb 39f 42f
7:50am 3ft 5s 5s 7 9 mph 1010.4mb 39f 42f
6:50am 3.5ft 5s 4s 13
mph
1010.1mb 39f 43f
5:50am 3.5ft 5s 5s 16 20 mph 1010.1mb 39f 44f
4:50am 3.5ft 5s 5s 16 18 mph 1010.4mb 39f 44f
3:50am 3.5ft 5s 5s 9 11 mph 1010.8mb 39f 43f
2:50am 3.5ft 5s 5s 16 18 mph 1010.2mb 39f 44f
1:50am 3.5ft 10s 5s 13 16 mph 1010.3mb 39f 44f
12:50am 3.5ft 10s 5s 13 16 mph 1010.7mb 39f 43f
Fri 02/24 11:50pm 3.5ft 5s 5s 13
mph
1010.4mb 39f 43f
10:50pm 4.5ft 5s 5s 4 7 mph 1010.3mb 39f 43f
9:50pm 4.5ft 5s 5s 16 18 mph 1009.9mb 39f 45f
8:50pm 4ft 5s 4s 18 20 mph 1010mb 39f 46f
7:50pm 3ft 10s 5s 16 18 mph 1010.1mb 39f 46f
6:50pm 3ft 10s 6s 9 13 mph 1010.5mb 40f 47f
5:50pm 3ft 10s 6s 7 9 mph 1010.5mb 40f 43f
4:50pm 3ft 10s 6s 4
mph
1010.9mb 40f 42f
3:50pm 3.5ft 10s 7s 7
mph
1010.6mb 40f 43f